sensor_id;sensor_type;location;lat;lon;timestamp;P1;durP1;ratioP1;P2;durP2;ratioP2
52674;SDS011;38569;52.722;6.440;2023-08-24T00:01:09;8.50;;;4.40;;
52674;SDS011;38569;52.722;6.440;2023-08-24T00:03:37;5.28;;;4.80;;
52674;SDS011;38569;52.722;6.440;2023-08-24T00:06:04;8.48;;;5.57;;
52674;SDS011;38569;52.722;6.440;2023-08-24T00:08:29;8.30;;;5.43;;
52674;SDS011;38569;52.722;6.440;2023-08-24T00:10:55;7.97;;;5.45;;
52674;SDS011;38569;52.722;6.440;2023-08-24T00:13:21;8.40;;;5.32;;
52674;SDS011;38569;52.722;6.440;2023-08-24T00:15:47;6.25;;;5.65;;
52674;SDS011;38569;52.722;6.440;2023-08-24T00:18:12;8.18;;;5.63;;
52674;SDS011;38569;52.722;6.440;2023-08-24T00:20:38;8.40;;;5.55;;
52674;SDS011;38569;52.722;6.440;2023-08-24T00:23:04;6.35;;;4.93;;
52674;SDS011;38569;52.722;6.440;2023-08-24T00:25:30;8.35;;;5.15;;
52674;SDS011;38569;52.722;6.440;2023-08-24T00:27:56;7.65;;;5.03;;
52674;SDS011;38569;52.722;6.440;2023-08-24T00:30:22;5.78;;;4.88;;
52674;SDS011;38569;52.722;6.440;2023-08-24T00:32:49;7.93;;;5.40;;
52674;SDS011;38569;52.722;6.440;2023-08-24T00:35:15;6.53;;;5.13;;
52674;SDS011;38569;52.722;6.440;2023-08-24T00:37:41;11.30;;;6.40;;
52674;SDS011;38569;52.722;6.440;2023-08-24T00:40:07;8.70;;;5.70;;
52674;SDS011;38569;52.722;6.440;2023-08-24T00:42:38;10.02;;;6.22;;
52674;SDS011;38569;52.722;6.440;2023-08-24T00:45:08;8.32;;;5.85;;
52674;SDS011;38569;52.722;6.440;2023-08-24T00:47:37;7.38;;;5.70;;
52674;SDS011;38569;52.722;6.440;2023-08-24T00:50:09;9.60;;;5.15;;
52674;SDS011;38569;52.722;6.440;2023-08-24T00:52:36;8.90;;;5.32;;
52674;SDS011;38569;52.722;6.440;2023-08-24T00:55:04;7.28;;;5.65;;
52674;SDS011;38569;52.722;6.440;2023-08-24T00:57:30;8.63;;;5.30;;
52674;SDS011;38569;52.722;6.440;2023-08-24T00:59:57;10.73;;;6.18;;
52674;SDS011;38569;52.722;6.440;2023-08-24T01:02:24;10.10;;;7.60;;
52674;SDS011;38569;52.722;6.440;2023-08-24T01:04:50;10.07;;;8.40;;
52674;SDS011;38569;52.722;6.440;2023-08-24T01:07:16;17.05;;;8.38;;
52674;SDS011;38569;52.722;6.440;2023-08-24T01:09:43;12.05;;;8.40;;
52674;SDS011;38569;52.722;6.440;2023-08-24T01:17:46;13.85;;;7.80;;
52674;SDS011;38569;52.722;6.440;2023-08-24T01:20:15;9.45;;;7.07;;
52674;SDS011;38569;52.722;6.440;2023-08-24T01:25:47;13.00;;;8.13;;
52674;SDS011;38569;52.722;6.440;2023-08-24T01:28:17;8.50;;;7.05;;
52674;SDS011;38569;52.722;6.440;2023-08-24T01:30:45;13.27;;;7.28;;
52674;SDS011;38569;52.722;6.440;2023-08-24T01:33:11;9.50;;;6.97;;
52674;SDS011;38569;52.722;6.440;2023-08-24T01:35:38;11.55;;;6.22;;
52674;SDS011;38569;52.722;6.440;2023-08-24T01:38:05;9.35;;;6.75;;
52674;SDS011;38569;52.722;6.440;2023-08-24T01:45:43;11.45;;;6.68;;
52674;SDS011;38569;52.722;6.440;2023-08-24T01:48:10;11.48;;;6.45;;
52674;SDS011;38569;52.722;6.440;2023-08-24T01:50:37;8.63;;;5.25;;
52674;SDS011;38569;52.722;6.440;2023-08-24T01:53:03;10.43;;;5.13;;
52674;SDS011;38569;52.722;6.440;2023-08-24T01:55:30;8.10;;;6.30;;
52674;SDS011;38569;52.722;6.440;2023-08-24T01:57:56;10.30;;;5.85;;
52674;SDS011;38569;52.722;6.440;2023-08-24T02:00:22;11.52;;;5.68;;
52674;SDS011;38569;52.722;6.440;2023-08-24T02:02:48;13.25;;;6.97;;
52674;SDS011;38569;52.722;6.440;2023-08-24T02:05:13;12.52;;;6.05;;
52674;SDS011;38569;52.722;6.440;2023-08-24T02:07:39;11.23;;;6.28;;
52674;SDS011;38569;52.722;6.440;2023-08-24T02:10:06;10.60;;;6.15;;
52674;SDS011;38569;52.722;6.440;2023-08-24T02:12:32;15.30;;;6.78;;
52674;SDS011;38569;52.722;6.440;2023-08-24T02:14:58;14.57;;;6.90;;
52674;SDS011;38569;52.722;6.440;2023-08-24T02:17:23;14.95;;;7.25;;
52674;SDS011;38569;52.722;6.440;2023-08-24T02:19:50;12.10;;;8.18;;
52674;SDS011;38569;52.722;6.440;2023-08-24T02:22:16;14.15;;;7.13;;
52674;SDS011;38569;52.722;6.440;2023-08-24T02:24:42;11.63;;;7.82;;
52674;SDS011;38569;52.722;6.440;2023-08-24T02:27:08;10.40;;;7.82;;
52674;SDS011;38569;52.722;6.440;2023-08-24T02:29:33;16.33;;;8.45;;
52674;SDS011;38569;52.722;6.440;2023-08-24T02:31:59;17.17;;;8.07;;
52674;SDS011;38569;52.722;6.440;2023-08-24T02:34:25;13.13;;;7.85;;
52674;SDS011;38569;52.722;6.440;2023-08-24T02:36:51;10.40;;;6.57;;
52674;SDS011;38569;52.722;6.440;2023-08-24T02:39:17;12.52;;;7.22;;
52674;SDS011;38569;52.722;6.440;2023-08-24T02:41:42;14.68;;;9.70;;
52674;SDS011;38569;52.722;6.440;2023-08-24T02:44:08;18.17;;;8.82;;
52674;SDS011;38569;52.722;6.440;2023-08-24T02:46:34;11.75;;;8.00;;
52674;SDS011;38569;52.722;6.440;2023-08-24T02:49:00;11.40;;;6.32;;
52674;SDS011;38569;52.722;6.440;2023-08-24T02:51:25;13.68;;;7.82;;
52674;SDS011;38569;52.722;6.440;2023-08-24T02:53:51;15.70;;;7.32;;
52674;SDS011;38569;52.722;6.440;2023-08-24T02:56:17;11.40;;;6.93;;
52674;SDS011;38569;52.722;6.440;2023-08-24T02:58:42;12.52;;;7.60;;
52674;SDS011;38569;52.722;6.440;2023-08-24T03:01:08;10.57;;;7.22;;
52674;SDS011;38569;52.722;6.440;2023-08-24T03:03:34;9.63;;;7.75;;
52674;SDS011;38569;52.722;6.440;2023-08-24T03:06:01;18.45;;;7.95;;
52674;SDS011;38569;52.722;6.440;2023-08-24T03:08:29;12.23;;;8.52;;
52674;SDS011;38569;52.722;6.440;2023-08-24T03:10:56;13.65;;;7.35;;
52674;SDS011;38569;52.722;6.440;2023-08-24T03:13:22;13.68;;;8.38;;
52674;SDS011;38569;52.722;6.440;2023-08-24T03:15:48;14.48;;;9.70;;
52674;SDS011;38569;52.722;6.440;2023-08-24T03:18:15;11.40;;;8.35;;
52674;SDS011;38569;52.722;6.440;2023-08-24T03:20:41;15.25;;;8.77;;
52674;SDS011;38569;52.722;6.440;2023-08-24T03:23:07;12.73;;;9.52;;
52674;SDS011;38569;52.722;6.440;2023-08-24T03:25:36;14.98;;;9.65;;
52674;SDS011;38569;52.722;6.440;2023-08-24T03:28:04;16.75;;;10.98;;
52674;SDS011;38569;52.722;6.440;2023-08-24T03:30:30;14.95;;;10.10;;
52674;SDS011;38569;52.722;6.440;2023-08-24T03:32:56;15.60;;;10.13;;
52674;SDS011;38569;52.722;6.440;2023-08-24T03:35:22;17.20;;;11.18;;
52674;SDS011;38569;52.722;6.440;2023-08-24T03:37:48;16.65;;;10.63;;
52674;SDS011;38569;52.722;6.440;2023-08-24T03:40:13;15.85;;;10.10;;
52674;SDS011;38569;52.722;6.440;2023-08-24T03:42:39;20.13;;;10.65;;
52674;SDS011;38569;52.722;6.440;2023-08-24T03:45:05;16.13;;;10.70;;
52674;SDS011;38569;52.722;6.440;2023-08-24T03:47:31;16.45;;;10.30;;
52674;SDS011;38569;52.722;6.440;2023-08-24T03:49:57;15.50;;;11.18;;
52674;SDS011;38569;52.722;6.440;2023-08-24T03:52:23;15.15;;;9.77;;
52674;SDS011;38569;52.722;6.440;2023-08-24T03:54:48;15.30;;;10.73;;
52674;SDS011;38569;52.722;6.440;2023-08-24T03:57:14;17.33;;;12.30;;
52674;SDS011;38569;52.722;6.440;2023-08-24T03:59:40;14.68;;;10.90;;
52674;SDS011;38569;52.722;6.440;2023-08-24T04:02:06;17.95;;;11.85;;
52674;SDS011;38569;52.722;6.440;2023-08-24T04:04:32;15.70;;;12.50;;
52674;SDS011;38569;52.722;6.440;2023-08-24T04:06:58;17.35;;;13.82;;
52674;SDS011;38569;52.722;6.440;2023-08-24T04:09:25;19.70;;;13.48;;
52674;SDS011;38569;52.722;6.440;2023-08-24T04:11:51;22.08;;;12.77;;
52674;SDS011;38569;52.722;6.440;2023-08-24T04:14:16;23.45;;;13.48;;
52674;SDS011;38569;52.722;6.440;2023-08-24T04:16:42;19.10;;;13.40;;
52674;SDS011;38569;52.722;6.440;2023-08-24T04:19:08;16.55;;;13.40;;
52674;SDS011;38569;52.722;6.440;2023-08-24T04:21:34;15.73;;;12.48;;
52674;SDS011;38569;52.722;6.440;2023-08-24T04:24:00;19.80;;;12.77;;
52674;SDS011;38569;52.722;6.440;2023-08-24T04:26:26;20.63;;;12.95;;
52674;SDS011;38569;52.722;6.440;2023-08-24T04:28:51;18.92;;;12.30;;
52674;SDS011;38569;52.722;6.440;2023-08-24T04:31:17;21.60;;;11.07;;
52674;SDS011;38569;52.722;6.440;2023-08-24T04:33:43;17.77;;;12.88;;
52674;SDS011;38569;52.722;6.440;2023-08-24T04:36:08;16.42;;;12.27;;
52674;SDS011;38569;52.722;6.440;2023-08-24T04:38:34;17.25;;;11.98;;
52674;SDS011;38569;52.722;6.440;2023-08-24T04:41:00;15.80;;;11.48;;
52674;SDS011;38569;52.722;6.440;2023-08-24T04:43:26;15.20;;;12.68;;
52674;SDS011;38569;52.722;6.440;2023-08-24T04:45:52;17.35;;;12.00;;
52674;SDS011;38569;52.722;6.440;2023-08-24T04:48:19;18.55;;;12.98;;
52674;SDS011;38569;52.722;6.440;2023-08-24T04:50:46;15.90;;;12.82;;
52674;SDS011;38569;52.722;6.440;2023-08-24T04:53:16;17.15;;;13.50;;
52674;SDS011;38569;52.722;6.440;2023-08-24T04:55:43;18.98;;;13.35;;
52674;SDS011;38569;52.722;6.440;2023-08-24T04:58:10;16.42;;;12.02;;
52674;SDS011;38569;52.722;6.440;2023-08-24T05:00:37;18.75;;;11.85;;
52674;SDS011;38569;52.722;6.440;2023-08-24T05:03:06;18.50;;;11.75;;
52674;SDS011;38569;52.722;6.440;2023-08-24T05:05:33;16.45;;;12.38;;
52674;SDS011;38569;52.722;6.440;2023-08-24T05:07:59;13.60;;;10.57;;
52674;SDS011;38569;52.722;6.440;2023-08-24T05:10:29;15.32;;;9.95;;
52674;SDS011;38569;52.722;6.440;2023-08-24T05:12:55;18.27;;;9.18;;
52674;SDS011;38569;52.722;6.440;2023-08-24T05:15:21;13.32;;;9.43;;
52674;SDS011;38569;52.722;6.440;2023-08-24T05:17:47;13.55;;;9.43;;
52674;SDS011;38569;52.722;6.440;2023-08-24T05:20:13;12.68;;;9.48;;
52674;SDS011;38569;52.722;6.440;2023-08-24T05:22:39;15.35;;;8.80;;
52674;SDS011;38569;52.722;6.440;2023-08-24T05:25:05;10.90;;;8.30;;
52674;SDS011;38569;52.722;6.440;2023-08-24T05:27:31;22.02;;;9.98;;
52674;SDS011;38569;52.722;6.440;2023-08-24T05:29:57;15.15;;;10.48;;
52674;SDS011;38569;52.722;6.440;2023-08-24T05:32:23;15.23;;;9.43;;
52674;SDS011;38569;52.722;6.440;2023-08-24T05:34:49;13.40;;;9.25;;
52674;SDS011;38569;52.722;6.440;2023-08-24T05:37:15;14.80;;;8.98;;
52674;SDS011;38569;52.722;6.440;2023-08-24T05:39:41;13.00;;;8.65;;
52674;SDS011;38569;52.722;6.440;2023-08-24T05:42:08;12.32;;;8.93;;
52674;SDS011;38569;52.722;6.440;2023-08-24T05:44:34;16.00;;;9.80;;
52674;SDS011;38569;52.722;6.440;2023-08-24T05:46:59;13.43;;;8.98;;
52674;SDS011;38569;52.722;6.440;2023-08-24T05:49:25;10.98;;;8.00;;
52674;SDS011;38569;52.722;6.440;2023-08-24T05:51:51;11.55;;;7.82;;
52674;SDS011;38569;52.722;6.440;2023-08-24T05:54:17;10.45;;;8.40;;
52674;SDS011;38569;52.722;6.440;2023-08-24T05:56:46;20.58;;;7.70;;
52674;SDS011;38569;52.722;6.440;2023-08-24T05:59:13;16.40;;;7.00;;
52674;SDS011;38569;52.722;6.440;2023-08-24T06:01:40;10.65;;;6.93;;
52674;SDS011;38569;52.722;6.440;2023-08-24T06:04:10;10.05;;;6.80;;
52674;SDS011;38569;52.722;6.440;2023-08-24T06:06:39;13.93;;;7.13;;
52674;SDS011;38569;52.722;6.440;2023-08-24T06:09:05;9.35;;;6.25;;
52674;SDS011;38569;52.722;6.440;2023-08-24T06:11:32;9.93;;;6.47;;
52674;SDS011;38569;52.722;6.440;2023-08-24T06:13:58;14.23;;;6.97;;
52674;SDS011;38569;52.722;6.440;2023-08-24T06:16:24;12.95;;;7.40;;
52674;SDS011;38569;52.722;6.440;2023-08-24T06:18:49;11.27;;;7.32;;
52674;SDS011;38569;52.722;6.440;2023-08-24T06:21:16;9.85;;;6.82;;
52674;SDS011;38569;52.722;6.440;2023-08-24T06:23:42;9.10;;;6.82;;
52674;SDS011;38569;52.722;6.440;2023-08-24T06:26:09;12.13;;;7.53;;
52674;SDS011;38569;52.722;6.440;2023-08-24T06:28:34;12.57;;;8.05;;
52674;SDS011;38569;52.722;6.440;2023-08-24T06:31:00;14.57;;;7.63;;
52674;SDS011;38569;52.722;6.440;2023-08-24T06:33:32;11.32;;;7.20;;
52674;SDS011;38569;52.722;6.440;2023-08-24T06:36:00;11.07;;;8.52;;
52674;SDS011;38569;52.722;6.440;2023-08-24T06:38:27;13.15;;;8.05;;
52674;SDS011;38569;52.722;6.440;2023-08-24T06:40:54;13.88;;;8.55;;
52674;SDS011;38569;52.722;6.440;2023-08-24T06:43:19;11.27;;;8.40;;
52674;SDS011;38569;52.722;6.440;2023-08-24T06:45:45;13.70;;;8.45;;
52674;SDS011;38569;52.722;6.440;2023-08-24T06:48:11;16.00;;;10.55;;
52674;SDS011;38569;52.722;6.440;2023-08-24T06:50:37;10.93;;;9.27;;
52674;SDS011;38569;52.722;6.440;2023-08-24T06:53:03;14.18;;;9.15;;
52674;SDS011;38569;52.722;6.440;2023-08-24T06:55:29;12.93;;;10.40;;
52674;SDS011;38569;52.722;6.440;2023-08-24T06:57:55;14.90;;;10.15;;
52674;SDS011;38569;52.722;6.440;2023-08-24T07:00:21;13.35;;;10.40;;
52674;SDS011;38569;52.722;6.440;2023-08-24T07:02:48;13.10;;;9.82;;
52674;SDS011;38569;52.722;6.440;2023-08-24T07:05:15;16.35;;;10.13;;
52674;SDS011;38569;52.722;6.440;2023-08-24T07:07:47;20.88;;;10.38;;
52674;SDS011;38569;52.722;6.440;2023-08-24T07:10:14;13.23;;;9.43;;
52674;SDS011;38569;52.722;6.440;2023-08-24T07:12:40;18.40;;;10.15;;
52674;SDS011;38569;52.722;6.440;2023-08-24T07:15:09;14.10;;;9.55;;
52674;SDS011;38569;52.722;6.440;2023-08-24T07:17:36;14.70;;;10.77;;
52674;SDS011;38569;52.722;6.440;2023-08-24T07:20:02;14.50;;;9.45;;
52674;SDS011;38569;52.722;6.440;2023-08-24T07:22:30;11.07;;;8.77;;
52674;SDS011;38569;52.722;6.440;2023-08-24T07:24:56;12.57;;;9.27;;
52674;SDS011;38569;52.722;6.440;2023-08-24T07:27:22;16.92;;;9.65;;
52674;SDS011;38569;52.722;6.440;2023-08-24T07:29:48;11.55;;;8.75;;
52674;SDS011;38569;52.722;6.440;2023-08-24T07:32:14;12.13;;;9.32;;
52674;SDS011;38569;52.722;6.440;2023-08-24T07:34:40;13.50;;;9.20;;
52674;SDS011;38569;52.722;6.440;2023-08-24T07:37:05;12.75;;;8.18;;
52674;SDS011;38569;52.722;6.440;2023-08-24T07:39:32;13.98;;;10.05;;
52674;SDS011;38569;52.722;6.440;2023-08-24T07:41:58;16.00;;;9.35;;
52674;SDS011;38569;52.722;6.440;2023-08-24T07:44:23;10.02;;;8.77;;
52674;SDS011;38569;52.722;6.440;2023-08-24T07:46:49;12.13;;;9.82;;
52674;SDS011;38569;52.722;6.440;2023-08-24T07:49:15;18.75;;;9.02;;
52674;SDS011;38569;52.722;6.440;2023-08-24T07:51:41;10.77;;;9.13;;
52674;SDS011;38569;52.722;6.440;2023-08-24T07:54:08;17.20;;;10.63;;
52674;SDS011;38569;52.722;6.440;2023-08-24T07:56:34;12.65;;;7.88;;
52674;SDS011;38569;52.722;6.440;2023-08-24T07:59:01;12.95;;;9.57;;
52674;SDS011;38569;52.722;6.440;2023-08-24T08:01:27;12.07;;;8.77;;
52674;SDS011;38569;52.722;6.440;2023-08-24T08:03:52;17.70;;;10.10;;
52674;SDS011;38569;52.722;6.440;2023-08-24T08:06:18;12.52;;;8.43;;
52674;SDS011;38569;52.722;6.440;2023-08-24T08:08:44;11.30;;;8.50;;
52674;SDS011;38569;52.722;6.440;2023-08-24T08:11:11;10.50;;;8.77;;
52674;SDS011;38569;52.722;6.440;2023-08-24T08:13:37;12.88;;;8.98;;
52674;SDS011;38569;52.722;6.440;2023-08-24T08:16:06;11.45;;;9.30;;
52674;SDS011;38569;52.722;6.440;2023-08-24T08:18:32;13.68;;;9.00;;
52674;SDS011;38569;52.722;6.440;2023-08-24T08:20:59;12.07;;;8.85;;
52674;SDS011;38569;52.722;6.440;2023-08-24T08:23:25;17.02;;;8.82;;
52674;SDS011;38569;52.722;6.440;2023-08-24T08:25:51;11.35;;;8.90;;
52674;SDS011;38569;52.722;6.440;2023-08-24T08:28:17;13.52;;;8.35;;
52674;SDS011;38569;52.722;6.440;2023-08-24T08:30:43;15.65;;;9.07;;
52674;SDS011;38569;52.722;6.440;2023-08-24T08:33:09;11.35;;;7.90;;
52674;SDS011;38569;52.722;6.440;2023-08-24T08:35:37;11.40;;;8.38;;
52674;SDS011;38569;52.722;6.440;2023-08-24T08:38:05;11.02;;;8.27;;
52674;SDS011;38569;52.722;6.440;2023-08-24T08:40:32;10.07;;;8.60;;
52674;SDS011;38569;52.722;6.440;2023-08-24T08:43:02;10.57;;;8.27;;
52674;SDS011;38569;52.722;6.440;2023-08-24T08:45:28;10.68;;;8.27;;
52674;SDS011;38569;52.722;6.440;2023-08-24T08:47:57;12.90;;;8.85;;
52674;SDS011;38569;52.722;6.440;2023-08-24T08:50:25;11.85;;;8.18;;
52674;SDS011;38569;52.722;6.440;2023-08-24T08:52:51;12.85;;;8.25;;
52674;SDS011;38569;52.722;6.440;2023-08-24T08:55:17;15.27;;;9.35;;
52674;SDS011;38569;52.722;6.440;2023-08-24T08:57:43;10.45;;;7.93;;
52674;SDS011;38569;52.722;6.440;2023-08-24T09:00:11;12.52;;;8.35;;
52674;SDS011;38569;52.722;6.440;2023-08-24T09:02:41;14.25;;;8.07;;
52674;SDS011;38569;52.722;6.440;2023-08-24T09:05:09;10.85;;;7.70;;
52674;SDS011;38569;52.722;6.440;2023-08-24T09:07:35;11.88;;;6.72;;
52674;SDS011;38569;52.722;6.440;2023-08-24T09:10:04;11.60;;;8.38;;
52674;SDS011;38569;52.722;6.440;2023-08-24T09:12:32;8.95;;;8.05;;
52674;SDS011;38569;52.722;6.440;2023-08-24T09:14:58;13.55;;;7.85;;
52674;SDS011;38569;52.722;6.440;2023-08-24T09:17:24;11.98;;;7.35;;
52674;SDS011;38569;52.722;6.440;2023-08-24T09:19:55;11.35;;;7.35;;
52674;SDS011;38569;52.722;6.440;2023-08-24T09:22:23;8.95;;;7.07;;
52674;SDS011;38569;52.722;6.440;2023-08-24T09:24:48;10.60;;;7.00;;
52674;SDS011;38569;52.722;6.440;2023-08-24T09:27:20;10.60;;;6.47;;
52674;SDS011;38569;52.722;6.440;2023-08-24T09:29:50;11.45;;;7.75;;
52674;SDS011;38569;52.722;6.440;2023-08-24T09:32:23;12.70;;;7.82;;
52674;SDS011;38569;52.722;6.440;2023-08-24T09:34:49;12.43;;;7.40;;
52674;SDS011;38569;52.722;6.440;2023-08-24T09:37:16;12.48;;;7.53;;
52674;SDS011;38569;52.722;6.440;2023-08-24T09:39:42;8.80;;;7.28;;
52674;SDS011;38569;52.722;6.440;2023-08-24T09:42:09;9.45;;;7.18;;
52674;SDS011;38569;52.722;6.440;2023-08-24T09:44:34;12.68;;;6.47;;
52674;SDS011;38569;52.722;6.440;2023-08-24T09:47:01;14.95;;;7.63;;
52674;SDS011;38569;52.722;6.440;2023-08-24T09:49:28;13.48;;;7.75;;
52674;SDS011;38569;52.722;6.440;2023-08-24T09:51:57;12.57;;;8.77;;
52674;SDS011;38569;52.722;6.440;2023-08-24T09:54:26;9.10;;;7.55;;
52674;SDS011;38569;52.722;6.440;2023-08-24T09:56:53;9.95;;;8.13;;
52674;SDS011;38569;52.722;6.440;2023-08-24T09:59:21;12.65;;;6.80;;
52674;SDS011;38569;52.722;6.440;2023-08-24T10:01:50;11.57;;;7.43;;
52674;SDS011;38569;52.722;6.440;2023-08-24T10:04:28;13.80;;;7.57;;
52674;SDS011;38569;52.722;6.440;2023-08-24T10:06:57;11.35;;;8.07;;
52674;SDS011;38569;52.722;6.440;2023-08-24T10:09:31;11.77;;;8.32;;
52674;SDS011;38569;52.722;6.440;2023-08-24T10:12:03;13.55;;;9.48;;
52674;SDS011;38569;52.722;6.440;2023-08-24T10:17:21;10.55;;;8.40;;
52674;SDS011;38569;52.722;6.440;2023-08-24T10:19:48;14.20;;;8.60;;
52674;SDS011;38569;52.722;6.440;2023-08-24T10:22:18;14.48;;;9.30;;
52674;SDS011;38569;52.722;6.440;2023-08-24T10:24:45;11.20;;;8.05;;
52674;SDS011;38569;52.722;6.440;2023-08-24T10:27:14;10.40;;;8.15;;
52674;SDS011;38569;52.722;6.440;2023-08-24T10:29:41;8.43;;;7.10;;
52674;SDS011;38569;52.722;6.440;2023-08-24T10:32:07;11.07;;;7.55;;
52674;SDS011;38569;52.722;6.440;2023-08-24T10:34:34;11.13;;;8.85;;
52674;SDS011;38569;52.722;6.440;2023-08-24T10:37:09;15.32;;;8.13;;
52674;SDS011;38569;52.722;6.440;2023-08-24T10:39:45;9.70;;;7.90;;
52674;SDS011;38569;52.722;6.440;2023-08-24T10:42:12;11.13;;;8.15;;
52674;SDS011;38569;52.722;6.440;2023-08-24T10:44:39;13.30;;;8.63;;
52674;SDS011;38569;52.722;6.440;2023-08-24T10:49:43;11.98;;;8.20;;
52674;SDS011;38569;52.722;6.440;2023-08-24T10:54:47;11.55;;;8.32;;
52674;SDS011;38569;52.722;6.440;2023-08-24T10:57:23;13.20;;;7.43;;
52674;SDS011;38569;52.722;6.440;2023-08-24T11:00:09;9.70;;;6.65;;
52674;SDS011;38569;52.722;6.440;2023-08-24T11:02:49;9.68;;;8.70;;
52674;SDS011;38569;52.722;6.440;2023-08-24T11:07:57;14.05;;;8.00;;
52674;SDS011;38569;52.722;6.440;2023-08-24T11:10:25;10.90;;;8.27;;
52674;SDS011;38569;52.722;6.440;2023-08-24T11:13:07;16.02;;;8.38;;
52674;SDS011;38569;52.722;6.440;2023-08-24T11:18:10;12.10;;;7.18;;
52674;SDS011;38569;52.722;6.440;2023-08-24T11:21:03;12.52;;;9.15;;
52674;SDS011;38569;52.722;6.440;2023-08-24T11:23:30;14.38;;;7.90;;
52674;SDS011;38569;52.722;6.440;2023-08-24T11:25:59;14.90;;;8.52;;
52674;SDS011;38569;52.722;6.440;2023-08-24T11:28:29;9.75;;;8.70;;
52674;SDS011;38569;52.722;6.440;2023-08-24T11:30:56;10.13;;;7.60;;
52674;SDS011;38569;52.722;6.440;2023-08-24T11:33:29;13.23;;;8.55;;
52674;SDS011;38569;52.722;6.440;2023-08-24T11:35:56;15.27;;;8.32;;
52674;SDS011;38569;52.722;6.440;2023-08-24T11:38:22;11.02;;;7.32;;
52674;SDS011;38569;52.722;6.440;2023-08-24T11:40:48;9.90;;;7.90;;
52674;SDS011;38569;52.722;6.440;2023-08-24T11:43:26;11.90;;;7.97;;
52674;SDS011;38569;52.722;6.440;2023-08-24T11:45:53;14.90;;;8.05;;
52674;SDS011;38569;52.722;6.440;2023-08-24T11:48:23;12.23;;;7.55;;
52674;SDS011;38569;52.722;6.440;2023-08-24T11:50:51;9.02;;;8.07;;
52674;SDS011;38569;52.722;6.440;2023-08-24T11:53:19;16.90;;;8.52;;
52674;SDS011;38569;52.722;6.440;2023-08-24T11:55:44;10.48;;;7.38;;
52674;SDS011;38569;52.722;6.440;2023-08-24T11:58:14;8.98;;;7.20;;
52674;SDS011;38569;52.722;6.440;2023-08-24T12:00:41;13.10;;;8.20;;
52674;SDS011;38569;52.722;6.440;2023-08-24T12:03:07;11.80;;;7.80;;
52674;SDS011;38569;52.722;6.440;2023-08-24T12:05:34;14.75;;;8.75;;
52674;SDS011;38569;52.722;6.440;2023-08-24T12:08:00;12.43;;;8.95;;
52674;SDS011;38569;52.722;6.440;2023-08-24T12:10:26;8.73;;;7.20;;
52674;SDS011;38569;52.722;6.440;2023-08-24T12:13:00;11.75;;;7.70;;
52674;SDS011;38569;52.722;6.440;2023-08-24T12:15:28;11.57;;;7.95;;
52674;SDS011;38569;52.722;6.440;2023-08-24T12:17:54;15.57;;;9.13;;
52674;SDS011;38569;52.722;6.440;2023-08-24T12:20:20;13.32;;;8.60;;
52674;SDS011;38569;52.722;6.440;2023-08-24T12:22:54;14.27;;;7.82;;
52674;SDS011;38569;52.722;6.440;2023-08-24T12:25:24;12.38;;;6.95;;
52674;SDS011;38569;52.722;6.440;2023-08-24T12:28:07;9.88;;;7.32;;
52674;SDS011;38569;52.722;6.440;2023-08-24T12:30:47;9.20;;;6.97;;
52674;SDS011;38569;52.722;6.440;2023-08-24T12:33:27;12.68;;;7.18;;
52674;SDS011;38569;52.722;6.440;2023-08-24T12:35:55;9.55;;;7.30;;
52674;SDS011;38569;52.722;6.440;2023-08-24T12:38:21;10.95;;;8.32;;
52674;SDS011;38569;52.722;6.440;2023-08-24T12:40:47;16.48;;;9.18;;
52674;SDS011;38569;52.722;6.440;2023-08-24T12:43:13;14.38;;;8.77;;
52674;SDS011;38569;52.722;6.440;2023-08-24T12:45:39;13.70;;;9.30;;
52674;SDS011;38569;52.722;6.440;2023-08-24T12:48:06;9.50;;;7.60;;
52674;SDS011;38569;52.722;6.440;2023-08-24T12:50:35;10.55;;;9.02;;
52674;SDS011;38569;52.722;6.440;2023-08-24T12:53:01;10.55;;;7.38;;
52674;SDS011;38569;52.722;6.440;2023-08-24T12:55:28;8.75;;;7.28;;
52674;SDS011;38569;52.722;6.440;2023-08-24T12:57:54;11.18;;;7.90;;
52674;SDS011;38569;52.722;6.440;2023-08-24T13:00:20;13.98;;;7.68;;
52674;SDS011;38569;52.722;6.440;2023-08-24T13:02:47;13.52;;;7.63;;
52674;SDS011;38569;52.722;6.440;2023-08-24T13:05:14;10.00;;;7.15;;
52674;SDS011;38569;52.722;6.440;2023-08-24T13:07:40;10.18;;;7.40;;
52674;SDS011;38569;52.722;6.440;2023-08-24T13:10:05;10.60;;;7.80;;
52674;SDS011;38569;52.722;6.440;2023-08-24T13:12:32;10.55;;;6.88;;
52674;SDS011;38569;52.722;6.440;2023-08-24T13:14:58;14.30;;;7.70;;
52674;SDS011;38569;52.722;6.440;2023-08-24T13:17:23;8.88;;;6.40;;
52674;SDS011;38569;52.722;6.440;2023-08-24T13:19:49;10.73;;;7.07;;
52674;SDS011;38569;52.722;6.440;2023-08-24T13:22:15;9.73;;;6.30;;
52674;SDS011;38569;52.722;6.440;2023-08-24T13:24:41;8.63;;;7.30;;
52674;SDS011;38569;52.722;6.440;2023-08-24T13:27:09;10.40;;;6.78;;
52674;SDS011;38569;52.722;6.440;2023-08-24T13:29:38;11.23;;;7.43;;
52674;SDS011;38569;52.722;6.440;2023-08-24T13:32:07;11.38;;;8.25;;
52674;SDS011;38569;52.722;6.440;2023-08-24T13:34:33;11.15;;;7.57;;
52674;SDS011;38569;52.722;6.440;2023-08-24T13:36:59;9.13;;;6.68;;
52674;SDS011;38569;52.722;6.440;2023-08-24T13:39:25;10.20;;;6.10;;
52674;SDS011;38569;52.722;6.440;2023-08-24T13:41:53;11.82;;;7.28;;
52674;SDS011;38569;52.722;6.440;2023-08-24T13:44:19;7.35;;;6.22;;
52674;SDS011;38569;52.722;6.440;2023-08-24T13:46:45;9.93;;;7.80;;
52674;SDS011;38569;52.722;6.440;2023-08-24T13:49:11;10.95;;;6.38;;
52674;SDS011;38569;52.722;6.440;2023-08-24T13:51:37;13.05;;;7.35;;
52674;SDS011;38569;52.722;6.440;2023-08-24T13:54:04;10.77;;;7.50;;
52674;SDS011;38569;52.722;6.440;2023-08-24T13:56:44;9.90;;;7.22;;
52674;SDS011;38569;52.722;6.440;2023-08-24T13:59:11;9.55;;;6.72;;
52674;SDS011;38569;52.722;6.440;2023-08-24T14:01:38;10.05;;;6.53;;
52674;SDS011;38569;52.722;6.440;2023-08-24T14:04:04;13.43;;;7.88;;
52674;SDS011;38569;52.722;6.440;2023-08-24T14:06:30;11.05;;;8.32;;
52674;SDS011;38569;52.722;6.440;2023-08-24T14:08:58;11.07;;;8.27;;
52674;SDS011;38569;52.722;6.440;2023-08-24T14:11:24;17.23;;;9.43;;
52674;SDS011;38569;52.722;6.440;2023-08-24T14:13:50;15.60;;;8.35;;
52674;SDS011;38569;52.722;6.440;2023-08-24T14:16:16;12.85;;;9.30;;
52674;SDS011;38569;52.722;6.440;2023-08-24T14:18:43;16.08;;;8.60;;
52674;SDS011;38569;52.722;6.440;2023-08-24T14:21:10;13.40;;;8.68;;
52674;SDS011;38569;52.722;6.440;2023-08-24T14:23:35;11.68;;;9.35;;
52674;SDS011;38569;52.722;6.440;2023-08-24T14:26:01;14.48;;;9.43;;
52674;SDS011;38569;52.722;6.440;2023-08-24T14:31:27;12.73;;;8.27;;
52674;SDS011;38569;52.722;6.440;2023-08-24T14:33:54;12.40;;;8.95;;
52674;SDS011;38569;52.722;6.440;2023-08-24T14:36:20;9.05;;;7.57;;
52674;SDS011;38569;52.722;6.440;2023-08-24T14:38:46;11.18;;;8.38;;
52674;SDS011;38569;52.722;6.440;2023-08-24T14:41:13;12.90;;;9.05;;
52674;SDS011;38569;52.722;6.440;2023-08-24T14:43:40;23.33;;;9.05;;
52674;SDS011;38569;52.722;6.440;2023-08-24T14:46:06;16.55;;;9.27;;
52674;SDS011;38569;52.722;6.440;2023-08-24T14:48:32;15.95;;;8.60;;
52674;SDS011;38569;52.722;6.440;2023-08-24T14:50:59;14.05;;;8.13;;
52674;SDS011;38569;52.722;6.440;2023-08-24T14:53:25;14.40;;;8.68;;
52674;SDS011;38569;52.722;6.440;2023-08-24T14:55:55;11.55;;;9.43;;
52674;SDS011;38569;52.722;6.440;2023-08-24T14:58:21;12.82;;;8.77;;
52674;SDS011;38569;52.722;6.440;2023-08-24T15:00:52;13.60;;;7.50;;
52674;SDS011;38569;52.722;6.440;2023-08-24T15:03:19;13.40;;;7.75;;
52674;SDS011;38569;52.722;6.440;2023-08-24T15:05:45;11.90;;;8.45;;